createdAt,value
2022-10-21T00:01:41.554Z,35.90
2022-10-21T00:04:44.623Z,36.70
2022-10-21T00:07:46.383Z,38.50
2022-10-21T00:10:54.325Z,38.60
2022-10-21T00:13:56.180Z,35.70
2022-10-21T00:20:00.705Z,33.80
2022-10-21T00:26:05.039Z,33.00
2022-10-21T00:29:06.887Z,35.10
2022-10-21T00:35:10.407Z,32.00
2022-10-21T00:38:12.182Z,32.80
2022-10-21T00:44:16.324Z,34.90
2022-10-21T00:47:20.141Z,35.00
2022-10-21T00:50:34.590Z,35.20
2022-10-21T00:53:41.252Z,30.80
2022-10-21T00:56:44.824Z,30.70
2022-10-21T00:59:51.295Z,31.90
2022-10-21T01:02:54.088Z,31.50
2022-10-21T01:05:58.350Z,31.00
2022-10-21T01:09:01.324Z,28.60
2022-10-21T01:12:03.767Z,24.40
2022-10-21T01:15:12.381Z,22.10
2022-10-21T01:18:18.852Z,23.80
2022-10-21T01:21:38.858Z,24.90
2022-10-21T01:24:59.057Z,23.10
2022-10-21T01:28:10.328Z,24.10
2022-10-21T01:31:33.095Z,23.80
2022-10-21T01:34:38.283Z,26.40
2022-10-21T01:37:43.013Z,27.60
2022-10-21T01:41:07.157Z,26.50
2022-10-21T01:44:27.695Z,27.80
2022-10-21T01:47:43.719Z,29.90
2022-10-21T01:50:49.279Z,29.10
2022-10-21T01:53:55.910Z,27.90
2022-10-21T01:56:59.736Z,26.80
2022-10-21T02:00:01.988Z,26.10
2022-10-21T02:03:08.051Z,27.70
2022-10-21T02:06:10.267Z,26.30
2022-10-21T02:09:12.114Z,22.90
2022-10-21T02:12:15.288Z,25.80
2022-10-21T02:15:18.188Z,24.50
2022-10-21T02:18:24.281Z,25.30
2022-10-21T02:21:34.045Z,24.30
2022-10-21T02:24:55.972Z,27.10
2022-10-21T02:27:57.839Z,28.40
2022-10-21T02:34:15.017Z,25.90
2022-10-21T02:37:55.441Z,27.20
2022-10-21T02:41:07.151Z,29.20
2022-10-21T02:44:09.004Z,29.80
2022-10-21T02:50:17.684Z,25.80
2022-10-21T02:53:19.718Z,27.50
2022-10-21T02:56:21.610Z,26.00
2022-10-21T02:59:23.450Z,25.00
2022-10-21T03:05:27.500Z,27.60
2022-10-21T03:08:29.368Z,26.90
2022-10-21T03:14:33.035Z,28.50
2022-10-21T03:20:36.806Z,24.60
2022-10-21T03:26:40.439Z,29.10
2022-10-21T03:32:43.962Z,34.60
2022-10-21T03:35:45.790Z,35.30
2022-10-21T03:41:49.735Z,28.70
2022-10-21T03:44:53.687Z,31.30
2022-10-21T03:47:55.964Z,27.50
2022-10-21T03:50:57.722Z,30.10
2022-10-21T03:57:01.175Z,27.70
2022-10-21T04:03:05.843Z,26.00
2022-10-21T04:06:07.655Z,26.40
2022-10-21T04:12:12.375Z,24.20
2022-10-21T04:15:14.892Z,26.40
2022-10-21T04:18:16.799Z,25.30
2022-10-21T04:24:20.407Z,23.60
2022-10-21T04:27:22.163Z,27.00
2022-10-21T04:30:23.858Z,27.00
2022-10-21T04:33:25.661Z,25.50
2022-10-21T04:36:27.547Z,27.20
2022-10-21T04:42:30.870Z,22.70
2022-10-21T04:45:32.697Z,27.90
2022-10-21T04:51:36.209Z,26.50
2022-10-21T04:57:40.484Z,25.70
2022-10-21T05:00:42.143Z,25.70
2022-10-21T05:06:45.986Z,25.20
2022-10-21T05:15:51.439Z,30.70
2022-10-21T05:18:53.205Z,29.80
2022-10-21T05:21:55.329Z,28.80
2022-10-21T05:24:57.088Z,27.70
2022-10-21T05:31:00.748Z,29.30
2022-10-21T05:34:02.740Z,39.70
2022-10-21T05:37:04.520Z,33.30
2022-10-21T05:46:10.511Z,36.80
2022-10-21T05:52:15.122Z,35.30
2022-10-21T05:58:18.775Z,39.20
2022-10-21T06:01:20.854Z,35.80
2022-10-21T06:04:22.611Z,34.10
2022-10-21T06:10:28.367Z,25.60
2022-10-21T06:13:32.118Z,26.10
2022-10-21T06:16:36.926Z,26.00
2022-10-21T06:19:38.793Z,27.40
2022-10-21T06:25:43.810Z,27.00
2022-10-21T06:28:45.688Z,24.70
2022-10-21T06:31:47.459Z,25.70
2022-10-21T06:37:51.114Z,24.10
2022-10-21T06:46:56.594Z,22.90
2022-10-21T06:53:05.159Z,23.80
2022-10-21T06:56:14.255Z,26.20
2022-10-21T06:59:16.018Z,26.90
2022-10-21T07:02:17.835Z,26.70
2022-10-21T07:08:22.515Z,26.80
2022-10-21T07:11:36.767Z,25.60
2022-10-21T07:14:38.558Z,27.80
2022-10-21T07:20:42.731Z,27.60
2022-10-21T07:23:46.185Z,28.30
2022-10-21T07:26:48.740Z,25.60
2022-10-21T07:29:50.466Z,25.40
2022-10-21T07:36:13.182Z,23.00
2022-10-21T07:39:17.170Z,23.50
2022-10-21T07:42:18.934Z,24.90
2022-10-21T07:48:23.671Z,23.30
2022-10-21T07:51:28.566Z,23.00
2022-10-21T07:54:32.340Z,23.20
2022-10-21T07:57:34.186Z,30.40
2022-10-21T08:00:36.537Z,23.70
2022-10-21T08:03:39.091Z,23.50
2022-10-21T08:06:41.641Z,22.90
2022-10-21T08:09:43.399Z,22.80
2022-10-21T08:12:45.188Z,22.30
2022-10-21T08:15:50.479Z,22.30
2022-10-21T08:18:52.874Z,22.50
2022-10-21T08:21:56.872Z,22.20
2022-10-21T08:24:58.683Z,21.70
2022-10-21T08:28:00.384Z,19.70
2022-10-21T08:31:07.715Z,19.10
2022-10-21T08:34:09.937Z,18.80
2022-10-21T08:37:11.875Z,18.40
2022-10-21T08:40:14.200Z,18.60
2022-10-21T08:43:27.597Z,17.50
2022-10-21T08:46:34.168Z,17.50
2022-10-21T08:49:54.114Z,17.60
2022-10-21T08:53:01.372Z,19.40
2022-10-21T08:56:11.949Z,17.70
2022-10-21T08:59:22.296Z,17.20
2022-10-21T09:02:39.820Z,16.30
2022-10-21T09:05:59.993Z,17.00
2022-10-21T09:09:09.059Z,14.50
2022-10-21T09:12:17.014Z,15.40
2022-10-21T09:15:54.091Z,15.50
2022-10-21T09:19:32.224Z,15.50
2022-10-21T09:22:45.380Z,15.10
2022-10-21T09:26:00.758Z,14.00
2022-10-21T09:29:30.180Z,15.90
2022-10-21T09:32:35.051Z,14.40
2022-10-21T09:35:41.533Z,13.70
2022-10-21T09:38:55.237Z,13.90
2022-10-21T09:42:00.183Z,13.00
2022-10-21T09:45:07.013Z,13.70
2022-10-21T09:48:18.207Z,13.00
2022-10-21T09:51:25.085Z,13.10
2022-10-21T09:54:30.331Z,13.20
2022-10-21T09:57:32.097Z,12.10
2022-10-21T10:00:44.523Z,11.50
2022-10-21T10:03:48.577Z,11.40
2022-10-21T10:06:50.715Z,10.80
2022-10-21T10:09:52.475Z,11.00
2022-10-21T10:12:59.160Z,10.60
2022-10-21T10:16:22.920Z,11.20
2022-10-21T10:19:27.632Z,10.10
2022-10-21T10:22:35.920Z,10.50
2022-10-21T10:25:39.225Z,9.90
2022-10-21T10:31:50.969Z,10.10
2022-10-21T10:34:56.392Z,9.30
2022-10-21T10:38:00.002Z,10.20
2022-10-21T10:41:08.788Z,10.10
2022-10-21T10:44:31.196Z,10.50
2022-10-21T10:47:41.831Z,9.70
2022-10-21T10:50:45.015Z,10.10
2022-10-21T10:53:59.739Z,11.20
2022-10-21T10:57:05.433Z,9.90
2022-10-21T11:00:17.478Z,9.20
2022-10-21T11:03:26.470Z,9.00
2022-10-21T11:06:39.070Z,8.50
2022-10-21T11:09:40.915Z,8.30
2022-10-21T11:12:42.985Z,8.50
2022-10-21T11:16:00.019Z,8.60
2022-10-21T11:19:19.232Z,8.90
2022-10-21T11:22:24.889Z,8.30
2022-10-21T11:25:38.363Z,8.80
2022-10-21T11:28:50.549Z,8.30
2022-10-21T11:32:11.678Z,7.80
2022-10-21T11:35:32.512Z,7.60
2022-10-21T11:39:21.242Z,8.10
2022-10-21T11:42:31.942Z,7.90
2022-10-21T11:45:33.659Z,7.40
2022-10-21T11:48:54.539Z,6.90
2022-10-21T11:52:02.441Z,8.00
2022-10-21T11:55:32.421Z,11.90
2022-10-21T11:58:37.304Z,7.50
2022-10-21T12:01:46.980Z,7.30
2022-10-21T12:05:17.131Z,6.00
2022-10-21T12:08:28.659Z,6.40
2022-10-21T12:11:39.776Z,5.70
2022-10-21T12:14:50.324Z,5.80
2022-10-21T12:17:52.716Z,5.40
2022-10-21T12:20:56.269Z,5.40
2022-10-21T12:24:22.674Z,5.40
2022-10-21T12:27:42.496Z,5.50
2022-10-21T12:30:55.352Z,5.90
2022-10-21T12:33:57.399Z,5.60
2022-10-21T12:36:59.232Z,5.60
2022-10-21T12:40:26.278Z,5.90
2022-10-21T12:43:28.982Z,5.90
2022-10-21T12:46:40.101Z,5.30
2022-10-21T12:49:43.706Z,5.40
2022-10-21T12:52:46.561Z,5.20
2022-10-21T12:55:56.130Z,5.30
2022-10-21T12:59:01.854Z,5.60
2022-10-21T13:02:06.842Z,5.40
2022-10-21T13:05:08.823Z,5.50
2022-10-21T13:08:22.990Z,5.40
2022-10-21T13:11:39.051Z,5.60
2022-10-21T13:14:52.607Z,5.60
2022-10-21T13:17:56.043Z,6.00
2022-10-21T13:20:59.870Z,7.00
2022-10-21T13:24:20.315Z,5.90
2022-10-21T13:31:00.658Z,10.70
2022-10-21T13:34:02.967Z,11.70
2022-10-21T13:37:13.171Z,15.00
2022-10-21T13:40:17.834Z,8.10
2022-10-21T13:43:29.005Z,8.60
2022-10-21T13:46:43.642Z,6.30
2022-10-21T13:49:54.292Z,19.90
2022-10-21T13:52:56.146Z,15.20
2022-10-21T13:56:04.656Z,7.90
2022-10-21T13:59:18.424Z,10.10
2022-10-21T14:02:25.150Z,11.20
2022-10-21T14:05:39.713Z,15.60
2022-10-21T14:08:42.829Z,9.50
2022-10-21T14:11:48.823Z,6.80
2022-10-21T14:14:51.779Z,6.20
2022-10-21T14:17:58.604Z,6.40
2022-10-21T14:21:01.168Z,20.90
2022-10-21T14:24:03.727Z,163.00
2022-10-21T14:27:06.028Z,44.50
2022-10-21T14:30:10.329Z,10.90
2022-10-21T14:33:17.204Z,10.00
2022-10-21T14:36:23.425Z,8.40
2022-10-21T14:39:25.290Z,10.00
2022-10-21T14:42:27.068Z,8.70
2022-10-21T14:45:32.796Z,9.00
2022-10-21T14:48:38.169Z,8.70
2022-10-21T14:51:39.985Z,7.70
2022-10-21T14:54:47.966Z,7.50
2022-10-21T14:57:54.232Z,18.60
2022-10-21T15:00:58.711Z,18.60
2022-10-21T15:04:01.624Z,22.70
2022-10-21T15:07:03.305Z,14.50
2022-10-21T15:10:05.568Z,10.20
2022-10-21T15:13:20.086Z,11.30
2022-10-21T15:16:25.610Z,12.80
2022-10-21T15:19:32.940Z,15.00
2022-10-21T15:22:38.047Z,13.00
2022-10-21T15:25:39.784Z,18.50
2022-10-21T15:28:42.375Z,18.10
2022-10-21T15:31:44.379Z,17.00
2022-10-21T15:34:50.337Z,15.70
2022-10-21T15:37:53.421Z,14.60
2022-10-21T15:40:55.164Z,18.60
2022-10-21T15:43:56.997Z,17.50
2022-10-21T15:47:02.950Z,17.90
2022-10-21T15:50:13.961Z,20.10
2022-10-21T15:53:15.777Z,17.50
2022-10-21T15:56:19.537Z,18.80
2022-10-21T15:59:30.300Z,16.70
2022-10-21T16:02:32.035Z,23.50
2022-10-21T16:05:33.921Z,25.60
2022-10-21T16:08:35.665Z,25.40
2022-10-21T16:11:41.477Z,39.20
2022-10-21T16:14:49.895Z,29.90
2022-10-21T16:17:56.016Z,25.70
2022-10-21T16:20:58.741Z,23.00
2022-10-21T16:24:00.791Z,29.00
2022-10-21T16:27:02.511Z,26.70
2022-10-21T16:30:18.257Z,24.90
2022-10-21T16:33:20.049Z,28.00
2022-10-21T16:36:25.725Z,27.10
2022-10-21T16:39:27.538Z,22.80
2022-10-21T16:42:29.294Z,20.10
2022-10-21T16:45:32.083Z,19.50
2022-10-21T16:48:33.904Z,18.10
2022-10-21T16:51:37.404Z,16.00
2022-10-21T16:54:39.358Z,16.20
2022-10-21T16:57:41.568Z,16.70
2022-10-21T17:00:45.115Z,16.00
2022-10-21T17:03:47.080Z,20.50
2022-10-21T17:06:48.879Z,22.90
2022-10-21T17:09:50.652Z,24.20
2022-10-21T17:12:59.151Z,26.50
2022-10-21T17:16:00.970Z,25.50
2022-10-21T17:19:02.756Z,26.50
2022-10-21T17:22:04.481Z,41.10
2022-10-21T17:25:06.511Z,42.80
2022-10-21T17:28:09.075Z,41.90
2022-10-21T17:31:19.306Z,46.00
2022-10-21T17:34:26.661Z,48.30
2022-10-21T17:37:28.427Z,47.50
2022-10-21T17:40:30.343Z,43.10
2022-10-21T17:43:32.223Z,44.60
2022-10-21T17:46:34.293Z,47.30
2022-10-21T17:49:36.030Z,48.50
2022-10-21T17:52:38.738Z,58.80
2022-10-21T17:55:40.733Z,44.00
2022-10-21T17:58:42.399Z,44.10
2022-10-21T18:01:44.231Z,42.40
2022-10-21T18:04:46.628Z,46.00
2022-10-21T18:07:48.587Z,52.80
2022-10-21T18:10:55.655Z,45.00
2022-10-21T18:13:57.504Z,40.80
2022-10-21T18:16:59.312Z,41.10
2022-10-21T18:20:01.098Z,35.60
2022-10-21T18:23:02.899Z,35.80
2022-10-21T18:26:06.327Z,29.80
2022-10-21T18:29:08.044Z,32.30
2022-10-21T18:32:13.749Z,41.60
2022-10-21T18:35:16.738Z,36.00
2022-10-21T18:38:18.427Z,29.00
2022-10-21T18:41:21.493Z,27.80
2022-10-21T18:44:23.864Z,28.50
2022-10-21T18:47:28.191Z,28.10
2022-10-21T18:50:30.247Z,26.50
2022-10-21T18:53:33.994Z,24.30
2022-10-21T18:56:36.010Z,24.00
2022-10-21T18:59:37.784Z,23.00
2022-10-21T19:02:40.784Z,26.00
2022-10-21T19:05:43.566Z,30.90
2022-10-21T19:08:46.436Z,61.00
2022-10-21T19:11:49.081Z,43.70
2022-10-21T19:14:50.970Z,44.10
2022-10-21T19:17:52.722Z,40.30
2022-10-21T19:20:54.636Z,39.00
2022-10-21T19:23:56.846Z,35.50
2022-10-21T19:26:59.198Z,37.20
2022-10-21T19:30:01.045Z,38.10
2022-10-21T19:33:04.340Z,35.10
2022-10-21T19:36:06.732Z,37.30
2022-10-21T19:39:08.817Z,37.80
2022-10-21T19:42:10.795Z,38.30
2022-10-21T19:45:17.312Z,38.50
2022-10-21T19:48:20.394Z,37.30
2022-10-21T19:51:23.980Z,35.10
2022-10-21T19:54:25.756Z,37.60
2022-10-21T19:57:27.622Z,39.30
2022-10-21T20:00:29.503Z,38.60
2022-10-21T20:03:31.615Z,39.90
2022-10-21T20:06:35.785Z,41.40
2022-10-21T20:09:38.892Z,41.60
2022-10-21T20:12:41.520Z,42.70
2022-10-21T20:15:47.277Z,41.80
2022-10-21T20:18:49.564Z,42.80
2022-10-21T20:21:51.620Z,42.10
2022-10-21T20:24:53.524Z,40.70
2022-10-21T20:27:55.268Z,41.60
2022-10-21T20:31:01.773Z,40.90
2022-10-21T20:34:03.684Z,42.20
2022-10-21T20:37:05.847Z,43.20
2022-10-21T20:40:08.052Z,43.00
2022-10-21T20:43:09.800Z,45.30
2022-10-21T20:46:13.373Z,44.90
2022-10-21T20:49:15.107Z,45.40
2022-10-21T20:52:16.828Z,46.70
2022-10-21T20:55:18.871Z,48.60
2022-10-21T20:58:20.898Z,45.60
2022-10-21T21:01:25.581Z,41.70
2022-10-21T21:04:27.567Z,42.10
2022-10-21T21:07:29.290Z,39.80
2022-10-21T21:10:31.344Z,37.40
2022-10-21T21:13:33.878Z,38.00
2022-10-21T21:16:35.743Z,40.30
2022-10-21T21:19:39.463Z,40.40
2022-10-21T21:22:41.707Z,38.80
2022-10-21T21:25:43.971Z,40.00
2022-10-21T21:28:46.327Z,38.70
2022-10-21T21:31:48.202Z,38.70
2022-10-21T21:34:55.034Z,36.30
2022-10-21T21:37:56.986Z,35.60
2022-10-21T21:40:58.892Z,37.70
2022-10-21T21:44:00.806Z,37.70
2022-10-21T21:47:03.534Z,36.70
2022-10-21T21:50:05.710Z,35.00
2022-10-21T21:53:09.998Z,33.90
2022-10-21T21:56:12.139Z,34.30
2022-10-21T21:59:13.969Z,32.60
2022-10-21T22:02:15.659Z,35.10
2022-10-21T22:05:17.579Z,34.80
2022-10-21T22:08:19.315Z,32.30
2022-10-21T22:11:25.129Z,31.80
2022-10-21T22:14:27.191Z,33.20
2022-10-21T22:17:29.018Z,32.50
2022-10-21T22:20:31.107Z,30.60
2022-10-21T22:23:32.963Z,30.00
2022-10-21T22:26:35.139Z,33.10
2022-10-21T22:29:36.959Z,33.30
2022-10-21T22:32:38.971Z,30.80
2022-10-21T22:35:40.678Z,28.20
2022-10-21T22:38:42.835Z,30.20
2022-10-21T22:41:44.634Z,30.90
2022-10-21T22:44:46.661Z,32.90
2022-10-21T22:47:48.337Z,34.80
2022-10-21T22:50:50.135Z,39.00
2022-10-21T22:53:55.390Z,37.40
2022-10-21T22:56:59.131Z,39.80
2022-10-21T23:00:00.973Z,39.60
2022-10-21T23:03:06.131Z,37.10
2022-10-21T23:06:31.945Z,39.70
2022-10-21T23:09:47.803Z,36.10
2022-10-21T23:13:06.441Z,35.30
2022-10-21T23:16:08.402Z,39.90
2022-10-21T23:19:13.381Z,41.50
2022-10-21T23:22:15.262Z,44.80
2022-10-21T23:25:17.452Z,44.80
2022-10-21T23:31:25.988Z,47.80
2022-10-21T23:34:27.933Z,44.70
2022-10-21T23:37:29.719Z,45.90
2022-10-21T23:43:33.094Z,42.80
2022-10-21T23:49:36.664Z,37.30
2022-10-21T23:52:38.876Z,41.40
2022-10-21T23:55:40.558Z,42.80
